Concerto — JJ3855 — position and weather

sailwx.info

Track history (hours):
 
Tides and Currents Weather Stations Pressure Air Temp Water Temp Dewpoint Dewpoint Depression Visibility Wind Speed Wind Dir Waves Ship Positions

Concerto

Last reported at 2016-Aug-26 09:29 UTC. Time now 2016-Aug-26 10:13 UTC.
Position N 34°41' E 135°11'.

Length 74 m; draft 3 m.

Type: Passenger vessel. MMSI: 431000448.

Date/timePositionNaut miles runAvg speedWind from/ knotsBaromVisibWave heightAir tempDewpointWater temp
2016-Aug-26 09:29N 34°41' E 135°11'4 4.2
2016-Aug-26 08:33N 34°38' E 135°08'4 3.6
2016-Aug-26 07:29N 34°41' E 135°11'2 2.5
2016-Aug-26 06:33N 34°39' E 135°11'0 0.2
2016-Aug-26 04:33N 34°39' E 135°11'1 1.2
2016-Aug-26 03:33N 34°38' E 135°10'3 2.7
2016-Aug-26 02:33N 34°41' E 135°11'0 0.0
2016-Aug-25 22:29N 34°41' E 135°11'0 0.0
2016-Aug-25 21:29N 34°41' E 135°11'0 0.0
2016-Aug-25 20:23N 34°41' E 135°11'0 0.0
2016-Aug-25 19:29N 34°41' E 135°11'0 0.0
2016-Aug-25 18:29N 34°41' E 135°11'0 0.0
2016-Aug-25 17:29N 34°41' E 135°11'0 0.0
2016-Aug-25 16:29N 34°41' E 135°11'0 0.0
2016-Aug-25 15:29N 34°41' E 135°11'0 0.0
2016-Aug-25 14:29N 34°41' E 135°11'0 0.0
2016-Aug-25 13:29N 34°41' E 135°11'0 0.0
2016-Aug-25 12:29N 34°41' E 135°11'3 3.5
2016-Aug-25 11:33N 34°38' E 135°10'1 0.6
2016-Aug-25 10:33N 34°38' E 135°10'3 2.4
2016-Aug-25 09:26N 34°41' E 135°11'4 5.1
2016-Aug-25 08:33N 34°37' E 135°08'4 4.2
2016-Aug-25 07:30N 34°41' E 135°11'2 2.6
2016-Aug-25 06:33N 34°38' E 135°11'1 0.3
2016-Aug-25 04:33N 34°39' E 135°11'2 1.5
2016-Aug-25 03:33N 34°38' E 135°10'3 2.9
2016-Aug-25 02:33N 34°41' E 135°11'0 0.0
2016-Aug-25 01:30N 34°41' E 135°11'0 0.0
2016-Aug-25 00:30N 34°41' E 135°11'0 0.0
2016-Aug-24 23:30N 34°41' E 135°11'0 0.0
2016-Aug-24 22:30N 34°41' E 135°11'0 0.0
2016-Aug-24 21:30N 34°41' E 135°11'0 0.0
2016-Aug-24 20:30N 34°41' E 135°11'0 0.0
2016-Aug-24 19:24N 34°41' E 135°11'0 0.0
2016-Aug-24 18:30N 34°41' E 135°11'0 0.0
2016-Aug-24 17:30N 34°41' E 135°11'0 0.0
2016-Aug-24 16:30N 34°41' E 135°11'0 0.0
2016-Aug-24 15:30N 34°41' E 135°11'0 0.0
2016-Aug-24 14:30N 34°41' E 135°11'0 0.0
2016-Aug-24 13:30N 34°41' E 135°11'0 0.0
2016-Aug-24 12:30N 34°41' E 135°11'3 3.0
2016-Aug-24 11:33N 34°38' E 135°11'2 1.9
2016-Aug-24 10:33N 34°40' E 135°11'1 1.0
2016-Aug-24 09:31N 34°41' E 135°11'4 4.4
2016-Aug-24 08:33N 34°38' E 135°08'4 4.4
2016-Aug-24 07:33N 34°41' E 135°11'2 2.4
2016-Aug-24 06:33N 34°38' E 135°11'1 0.3
2016-Aug-24 04:33N 34°39' E 135°11'2 1.7
2016-Aug-24 03:33N 34°38' E 135°10'3 2.7
2016-Aug-24 02:28N 34°41' E 135°11'0 0.0
2016-Aug-24 01:28N 34°41' E 135°11'0 0.0
2016-Aug-24 00:28N 34°41' E 135°11'0 0.0
2016-Aug-23 23:28N 34°41' E 135°11'0 0.0
2016-Aug-23 22:28N 34°41' E 135°11'0 0.0
2016-Aug-23 21:28N 34°41' E 135°11'0 0.0
2016-Aug-23 20:28N 34°41' E 135°11'0 0.0
2016-Aug-23 19:28N 34°41' E 135°11'0 0.0
2016-Aug-23 18:28N 34°41' E 135°11'0 0.0
2016-Aug-23 17:28N 34°41' E 135°11'0 0.0
2016-Aug-23 16:22N 34°41' E 135°11'0 0.0
2016-Aug-23 15:28N 34°41' E 135°11'0 0.0
2016-Aug-23 14:28N 34°41' E 135°11'0 0.0
2016-Aug-23 13:28N 34°41' E 135°11'0 0.0
2016-Aug-23 12:28N 34°41' E 135°11'3 3.5
2016-Aug-23 11:34N 34°38' E 135°10'1 0.5
2016-Aug-23 10:33N 34°38' E 135°10'3 2.7
2016-Aug-23 09:28N 34°41' E 135°11'5 5.0
2016-Aug-23 08:32N 34°37' E 135°08'5 4.0
2016-Aug-23 07:22N 34°41' E 135°11'2 2.8
2016-Aug-23 06:33N 34°39' E 135°11'2 2.3
2016-Aug-23 05:34N 34°41' E 135°11'2 1.6
2016-Aug-23 04:33N 34°39' E 135°11'2 2.0
2016-Aug-23 03:33N 34°38' E 135°09'3 3.2
2016-Aug-23 02:33N 34°41' E 135°11'0 0.0
2016-Aug-23 01:26N 34°41' E 135°11'0 0.0
2016-Aug-23 00:32N 34°41' E 135°11'0 0.0
2016-Aug-22 23:32N 34°41' E 135°11'0 0.0
2016-Aug-22 22:32N 34°41' E 135°11'0 0.0
2016-Aug-22 21:32N 34°41' E 135°11'0 0.0
2016-Aug-22 20:32N 34°41' E 135°11'0 0.0
2016-Aug-22 19:32N 34°41' E 135°11'0 0.0
2016-Aug-22 18:32N 34°41' E 135°11'0 0.0
2016-Aug-22 17:32N 34°41' E 135°11'0 0.0
2016-Aug-22 16:32N 34°41' E 135°11'0 0.0
2016-Aug-22 15:32N 34°41' E 135°11'0 0.0
2016-Aug-22 14:20N 34°41' E 135°11'0 0.0
2016-Aug-22 13:32N 34°41' E 135°11'0 0.0
2016-Aug-22 12:32N 34°41' E 135°11'3 3.1
2016-Aug-22 11:33N 34°38' E 135°11'1 1.1
2016-Aug-22 10:33N 34°38' E 135°09'3 2.6
2016-Aug-22 09:22N 34°41' E 135°11'5 6.1
2016-Aug-22 08:33N 34°37' E 135°07'5 4.5
2016-Aug-22 07:27N 34°41' E 135°11'2 2.8
2016-Aug-22 06:34N 34°38' E 135°11'2 2.4
2016-Aug-22 05:32N 34°41' E 135°11'1 1.3
2016-Aug-22 04:33N 34°40' E 135°12'2 1.8
2016-Aug-22 03:33N 34°38' E 135°10'3 2.7
2016-Aug-22 02:32N 34°41' E 135°11'0 0.0
2016-Aug-22 01:32N 34°41' E 135°11'0 0.0
2016-Aug-22 00:32N 34°41' E 135°11'0 0.0
2016-Aug-21 23:32N 34°41' E 135°11'0 0.0
2016-Aug-21 22:32N 34°41' E 135°11'0 0.0
2016-Aug-21 21:32N 34°41' E 135°11'0 0.0
2016-Aug-21 20:32N 34°41' E 135°11'0 0.0
2016-Aug-21 19:32N 34°41' E 135°11'0 0.0
2016-Aug-21 18:32N 34°41' E 135°11'0 0.0
2016-Aug-21 17:32N 34°41' E 135°11'0 0.0
2016-Aug-21 16:20N 34°41' E 135°11'0 0.0
2016-Aug-21 15:32N 34°41' E 135°11'0 0.0
2016-Aug-21 14:32N 34°41' E 135°11'0 0.0
2016-Aug-21 13:32N 34°41' E 135°11'0 0.0
2016-Aug-21 12:32N 34°41' E 135°11'3 3.2
2016-Aug-21 11:34N 34°38' E 135°10'1 0.8
2016-Aug-21 10:34N 34°38' E 135°09'3 3.3
2016-Aug-21 09:33N 34°41' E 135°11'5 4.9
2016-Aug-21 08:34N 34°37' E 135°07'5 4.7
2016-Aug-21 07:31N 34°41' E 135°11'2 2.2
2016-Aug-21 06:33N 34°39' E 135°11'2 2.2
2016-Aug-21 05:33N 34°41' E 135°11'2 1.9
2016-Aug-21 04:33N 34°39' E 135°11'2 2.0
2016-Aug-21 03:33N 34°38' E 135°09'3 3.4
2016-Aug-21 02:33N 34°41' E 135°11'0 0.0
2016-Aug-21 01:32N 34°41' E 135°11'0 0.0
2016-Aug-21 00:32N 34°41' E 135°11'0 0.0
2016-Aug-20 23:32N 34°41' E 135°11'0 0.0
2016-Aug-20 22:20N 34°41' E 135°11'0 0.0
2016-Aug-20 21:32N 34°41' E 135°11'0 0.0
2016-Aug-20 20:32N 34°41' E 135°11'0 0.0
2016-Aug-20 19:32N 34°41' E 135°11'0 0.0
2016-Aug-20 18:26N 34°41' E 135°11'0 0.0
2016-Aug-20 17:26N 34°41' E 135°11'0 0.0
2016-Aug-20 16:32N 34°41' E 135°11'0 0.0
2016-Aug-20 15:32N 34°41' E 135°11'0 0.0
2016-Aug-20 14:32N 34°41' E 135°11'0 0.0
2016-Aug-20 13:32N 34°41' E 135°11'0 0.0
2016-Aug-20 12:32N 34°41' E 135°11'4 3.6
2016-Aug-20 11:33N 34°38' E 135°09'0 0.3
2016-Aug-20 10:33N 34°38' E 135°09'3 3.1
2016-Aug-20 09:28N 34°41' E 135°11'5 5.6
2016-Aug-20 08:33N 34°37' E 135°07'5 4.9
2016-Aug-20 07:30N 34°41' E 135°11'2 2.6
2016-Aug-20 06:33N 34°38' E 135°11'2 2.5
2016-Aug-20 05:33N 34°41' E 135°11'2 1.8
2016-Aug-20 04:33N 34°39' E 135°11'2 1.8
2016-Aug-20 03:33N 34°38' E 135°10'3 3.2
2016-Aug-20 02:33N 34°41' E 135°11'0 0.0
2016-Aug-20 01:33N 34°41' E 135°11'0 0.0
2016-Aug-20 00:33N 34°41' E 135°11'0 0.0
2016-Aug-19 23:33N 34°41' E 135°11'0 0.0
2016-Aug-19 22:33N 34°41' E 135°11'0 0.0
2016-Aug-19 21:27N 34°41' E 135°11'0 0.0
2016-Aug-19 20:33N 34°41' E 135°11'0 0.0
2016-Aug-19 19:33N 34°41' E 135°11'0 0.0
2016-Aug-19 18:33N 34°41' E 135°11'0 0.0
2016-Aug-19 17:33N 34°41' E 135°11'0 0.0
2016-Aug-19 16:33N 34°41' E 135°11'0 0.0
2016-Aug-19 15:33N 34°41' E 135°11'0 0.0
2016-Aug-19 14:15N 34°41' E 135°11'0 0.0
2016-Aug-19 13:33N 34°41' E 135°11'0 0.0
2016-Aug-19 12:33N 34°41' E 135°11'3 3.0
2016-Aug-19 11:33N 34°38' E 135°10'0 0.5
2016-Aug-19 10:33N 34°38' E 135°10'3 2.3
2016-Aug-19 09:24N 34°41' E 135°11'5 5.9
2016-Aug-19 08:33N 34°37' E 135°07'5 5.0
2016-Aug-19 07:33N 34°41' E 135°11'2 2.3
2016-Aug-19 06:33N 34°39' E 135°11'2 2.3
2016-Aug-19 05:33N 34°41' E 135°11'2 2.0
2016-Aug-19 04:33N 34°39' E 135°11'1 1.4
2016-Aug-19 03:33N 34°38' E 135°10'3 2.9
2016-Aug-19 02:33N 34°41' E 135°11'0 0.0
2016-Aug-18 12:30N 34°41' E 135°11'4 3.8
2016-Aug-18 11:33N 34°37' E 135°09'0 0.4
2016-Aug-18 10:33N 34°38' E 135°10'3 2.8
2016-Aug-18 09:25N 34°41' E 135°11'5 6.0
2016-Aug-18 08:33N 34°37' E 135°07'5 5.2
2016-Aug-18 07:33N 34°41' E 135°11'3 2.8
2016-Aug-18 06:33N 34°38' E 135°10'3 2.8
2016-Aug-18 05:34N 34°41' E 135°11'2 1.7
2016-Aug-18 04:33N 34°39' E 135°11'1 1.3
2016-Aug-18 03:33N 34°38' E 135°10'3 2.6
2016-Aug-18 02:33N 34°41' E 135°11'0 0.0
2016-Aug-18 01:33N 34°41' E 135°11'0 0.0
2016-Aug-18 00:27N 34°41' E 135°11'0 0.0
2016-Aug-17 23:33N 34°41' E 135°11'0 0.0
2016-Aug-17 22:33N 34°41' E 135°11'0 0.0
2016-Aug-17 21:33N 34°41' E 135°11'0 0.0
2016-Aug-17 20:33N 34°41' E 135°11'0 0.0
2016-Aug-17 19:33N 34°41' E 135°11'0 0.0
2016-Aug-17 18:33N 34°41' E 135°11'0 0.0
2016-Aug-17 17:33N 34°41' E 135°11'0 0.0
2016-Aug-17 16:33N 34°41' E 135°11'0 0.0
2016-Aug-17 15:33N 34°41' E 135°11'0 0.0
2016-Aug-17 14:33N 34°41' E 135°11'0 0.0
2016-Aug-17 13:27N 34°41' E 135°11'0 0.0
2016-Aug-17 12:33N 34°41' E 135°11'3 3.1
2016-Aug-17 11:33N 34°38' E 135°10'0 0.4
2016-Aug-17 10:33N 34°38' E 135°10'3 2.7
2016-Aug-17 09:28N 34°41' E 135°11'5 5.5
2016-Aug-17 08:34N 34°38' E 135°07'5 4.6
2016-Aug-17 07:29N 34°41' E 135°11'3 2.8
2016-Aug-17 06:33N 34°38' E 135°11'3 2.6
2016-Aug-17 05:34N 34°41' E 135°11'2 1.6
2016-Aug-17 04:33N 34°39' E 135°11'2 2.1
2016-Aug-17 03:33N 34°38' E 135°09'3 3.1
2016-Aug-17 02:32N 34°41' E 135°11'0 0.0
2016-Aug-17 01:20N 34°41' E 135°11'0 0.0
2016-Aug-17 00:32N 34°41' E 135°11'0 0.0
2016-Aug-16 23:26N 34°41' E 135°11'0 0.0
2016-Aug-16 22:32N 34°41' E 135°11'0 0.0
2016-Aug-16 21:26N 34°41' E 135°11'0 0.0
2016-Aug-16 20:32N 34°41' E 135°11'0 0.0
2016-Aug-16 19:32N 34°41' E 135°11'0 0.0
2016-Aug-16 18:32N 34°41' E 135°11'0 0.0
2016-Aug-16 17:20N 34°41' E 135°11'0 0.0
2016-Aug-16 16:32N 34°41' E 135°11'0 0.0
2016-Aug-16 15:32N 34°41' E 135°11'0 0.0
2016-Aug-16 14:32N 34°41' E 135°11'0 0.0
2016-Aug-16 13:32N 34°41' E 135°11'0 0.0
2016-Aug-16 12:14N 34°41' E 135°11'3 4.6
2016-Aug-16 11:33N 34°38' E 135°10'1 0.8
2016-Aug-16 10:33N 34°38' E 135°09'3 3.2
2016-Aug-16 09:33N 34°41' E 135°11'  
Track history (hours):
 
Tides and Currents Weather Stations Pressure Air Temp Water Temp Dewpoint Dewpoint Depression Visibility Wind Speed Wind Dir Waves Ship Positions

Concerto

Last reported at 2016-Aug-26 09:29 UTC. Time now 2016-Aug-26 10:13 UTC.
Position N 34°41' E 135°11'.

Length 74 m; draft 3 m.

Type: Passenger vessel. MMSI: 431000448.

Date/timePositionNaut miles runAvg speedWind from/ knotsBaromVisibWave heightAir tempDewpointWater temp
2016-Aug-26 09:29N 34°41' E 135°11'4 4.2
2016-Aug-26 08:33N 34°38' E 135°08'4 3.6
2016-Aug-26 07:29N 34°41' E 135°11'2 2.5
2016-Aug-26 06:33N 34°39' E 135°11'0 0.2
2016-Aug-26 04:33N 34°39' E 135°11'1 1.2
2016-Aug-26 03:33N 34°38' E 135°10'3 2.7
2016-Aug-26 02:33N 34°41' E 135°11'0 0.0
2016-Aug-25 22:29N 34°41' E 135°11'0 0.0
2016-Aug-25 21:29N 34°41' E 135°11'0 0.0
2016-Aug-25 20:23N 34°41' E 135°11'0 0.0
2016-Aug-25 19:29N 34°41' E 135°11'0 0.0
2016-Aug-25 18:29N 34°41' E 135°11'0 0.0
2016-Aug-25 17:29N 34°41' E 135°11'0 0.0
2016-Aug-25 16:29N 34°41' E 135°11'0 0.0
2016-Aug-25 15:29N 34°41' E 135°11'0 0.0
2016-Aug-25 14:29N 34°41' E 135°11'0 0.0
2016-Aug-25 13:29N 34°41' E 135°11'0 0.0
2016-Aug-25 12:29N 34°41' E 135°11'3 3.5
2016-Aug-25 11:33N 34°38' E 135°10'1 0.6
2016-Aug-25 10:33N 34°38' E 135°10'3 2.4
2016-Aug-25 09:26N 34°41' E 135°11'4 5.1
2016-Aug-25 08:33N 34°37' E 135°08'4 4.2
2016-Aug-25 07:30N 34°41' E 135°11'2 2.6
2016-Aug-25 06:33N 34°38' E 135°11'1 0.3
2016-Aug-25 04:33N 34°39' E 135°11'2 1.5
2016-Aug-25 03:33N 34°38' E 135°10'3 2.9
2016-Aug-25 02:33N 34°41' E 135°11'0 0.0
2016-Aug-25 01:30N 34°41' E 135°11'0 0.0
2016-Aug-25 00:30N 34°41' E 135°11'0 0.0
2016-Aug-24 23:30N 34°41' E 135°11'0 0.0
2016-Aug-24 22:30N 34°41' E 135°11'0 0.0
2016-Aug-24 21:30N 34°41' E 135°11'0 0.0
2016-Aug-24 20:30N 34°41' E 135°11'0 0.0
2016-Aug-24 19:24N 34°41' E 135°11'0 0.0
2016-Aug-24 18:30N 34°41' E 135°11'0 0.0
2016-Aug-24 17:30N 34°41' E 135°11'0 0.0
2016-Aug-24 16:30N 34°41' E 135°11'0 0.0
2016-Aug-24 15:30N 34°41' E 135°11'0 0.0
2016-Aug-24 14:30N 34°41' E 135°11'0 0.0
2016-Aug-24 13:30N 34°41' E 135°11'0 0.0
2016-Aug-24 12:30N 34°41' E 135°11'3 3.0
2016-Aug-24 11:33N 34°38' E 135°11'2 1.9
2016-Aug-24 10:33N 34°40' E 135°11'1 1.0
2016-Aug-24 09:31N 34°41' E 135°11'4 4.4
2016-Aug-24 08:33N 34°38' E 135°08'4 4.4
2016-Aug-24 07:33N 34°41' E 135°11'2 2.4
2016-Aug-24 06:33N 34°38' E 135°11'1 0.3
2016-Aug-24 04:33N 34°39' E 135°11'2 1.7
2016-Aug-24 03:33N 34°38' E 135°10'3 2.7
2016-Aug-24 02:28N 34°41' E 135°11'0 0.0
2016-Aug-24 01:28N 34°41' E 135°11'0 0.0
2016-Aug-24 00:28N 34°41' E 135°11'0 0.0
2016-Aug-23 23:28N 34°41' E 135°11'0 0.0
2016-Aug-23 22:28N 34°41' E 135°11'0 0.0
2016-Aug-23 21:28N 34°41' E 135°11'0 0.0
2016-Aug-23 20:28N 34°41' E 135°11'0 0.0
2016-Aug-23 19:28N 34°41' E 135°11'0 0.0
2016-Aug-23 18:28N 34°41' E 135°11'0 0.0
2016-Aug-23 17:28N 34°41' E 135°11'0 0.0
2016-Aug-23 16:22N 34°41' E 135°11'0 0.0
2016-Aug-23 15:28N 34°41' E 135°11'0 0.0
2016-Aug-23 14:28N 34°41' E 135°11'0 0.0
2016-Aug-23 13:28N 34°41' E 135°11'0 0.0
2016-Aug-23 12:28N 34°41' E 135°11'3 3.5
2016-Aug-23 11:34N 34°38' E 135°10'1 0.5
2016-Aug-23 10:33N 34°38' E 135°10'3 2.7
2016-Aug-23 09:28N 34°41' E 135°11'5 5.0
2016-Aug-23 08:32N 34°37' E 135°08'5 4.0
2016-Aug-23 07:22N 34°41' E 135°11'2 2.8
2016-Aug-23 06:33N 34°39' E 135°11'2 2.3
2016-Aug-23 05:34N 34°41' E 135°11'2 1.6
2016-Aug-23 04:33N 34°39' E 135°11'2 2.0
2016-Aug-23 03:33N 34°38' E 135°09'3 3.2
2016-Aug-23 02:33N 34°41' E 135°11'0 0.0
2016-Aug-23 01:26N 34°41' E 135°11'0 0.0
2016-Aug-23 00:32N 34°41' E 135°11'0 0.0
2016-Aug-22 23:32N 34°41' E 135°11'0 0.0
2016-Aug-22 22:32N 34°41' E 135°11'0 0.0
2016-Aug-22 21:32N 34°41' E 135°11'0 0.0
2016-Aug-22 20:32N 34°41' E 135°11'0 0.0
2016-Aug-22 19:32N 34°41' E 135°11'0 0.0
2016-Aug-22 18:32N 34°41' E 135°11'0 0.0
2016-Aug-22 17:32N 34°41' E 135°11'0 0.0
2016-Aug-22 16:32N 34°41' E 135°11'0 0.0
2016-Aug-22 15:32N 34°41' E 135°11'0 0.0
2016-Aug-22 14:20N 34°41' E 135°11'0 0.0
2016-Aug-22 13:32N 34°41' E 135°11'0 0.0
2016-Aug-22 12:32N 34°41' E 135°11'3 3.1
2016-Aug-22 11:33N 34°38' E 135°11'1 1.1
2016-Aug-22 10:33N 34°38' E 135°09'3 2.6
2016-Aug-22 09:22N 34°41' E 135°11'5 6.1
2016-Aug-22 08:33N 34°37' E 135°07'5 4.5
2016-Aug-22 07:27N 34°41' E 135°11'2 2.8
2016-Aug-22 06:34N 34°38' E 135°11'2 2.4
2016-Aug-22 05:32N 34°41' E 135°11'1 1.3
2016-Aug-22 04:33N 34°40' E 135°12'2 1.8
2016-Aug-22 03:33N 34°38' E 135°10'3 2.7
2016-Aug-22 02:32N 34°41' E 135°11'0 0.0
2016-Aug-22 01:32N 34°41' E 135°11'0 0.0
2016-Aug-22 00:32N 34°41' E 135°11'0 0.0
2016-Aug-21 23:32N 34°41' E 135°11'0 0.0
2016-Aug-21 22:32N 34°41' E 135°11'0 0.0
2016-Aug-21 21:32N 34°41' E 135°11'0 0.0
2016-Aug-21 20:32N 34°41' E 135°11'0 0.0
2016-Aug-21 19:32N 34°41' E 135°11'0 0.0
2016-Aug-21 18:32N 34°41' E 135°11'0 0.0
2016-Aug-21 17:32N 34°41' E 135°11'0 0.0
2016-Aug-21 16:20N 34°41' E 135°11'0 0.0
2016-Aug-21 15:32N 34°41' E 135°11'0 0.0
2016-Aug-21 14:32N 34°41' E 135°11'0 0.0
2016-Aug-21 13:32N 34°41' E 135°11'0 0.0
2016-Aug-21 12:32N 34°41' E 135°11'3 3.2
2016-Aug-21 11:34N 34°38' E 135°10'1 0.8
2016-Aug-21 10:34N 34°38' E 135°09'3 3.3
2016-Aug-21 09:33N 34°41' E 135°11'5 4.9
2016-Aug-21 08:34N 34°37' E 135°07'5 4.7
2016-Aug-21 07:31N 34°41' E 135°11'2 2.2
2016-Aug-21 06:33N 34°39' E 135°11'2 2.2
2016-Aug-21 05:33N 34°41' E 135°11'2 1.9
2016-Aug-21 04:33N 34°39' E 135°11'2 2.0
2016-Aug-21 03:33N 34°38' E 135°09'3 3.4
2016-Aug-21 02:33N 34°41' E 135°11'0 0.0
2016-Aug-21 01:32N 34°41' E 135°11'0 0.0
2016-Aug-21 00:32N 34°41' E 135°11'0 0.0
2016-Aug-20 23:32N 34°41' E 135°11'0 0.0
2016-Aug-20 22:20N 34°41' E 135°11'0 0.0
2016-Aug-20 21:32N 34°41' E 135°11'0 0.0
2016-Aug-20 20:32N 34°41' E 135°11'0 0.0
2016-Aug-20 19:32N 34°41' E 135°11'0 0.0
2016-Aug-20 18:26N 34°41' E 135°11'0 0.0
2016-Aug-20 17:26N 34°41' E 135°11'0 0.0
2016-Aug-20 16:32N 34°41' E 135°11'0 0.0
2016-Aug-20 15:32N 34°41' E 135°11'0 0.0
2016-Aug-20 14:32N 34°41' E 135°11'0 0.0
2016-Aug-20 13:32N 34°41' E 135°11'0 0.0
2016-Aug-20 12:32N 34°41' E 135°11'4 3.6
2016-Aug-20 11:33N 34°38' E 135°09'0 0.3
2016-Aug-20 10:33N 34°38' E 135°09'3 3.1
2016-Aug-20 09:28N 34°41' E 135°11'5 5.6
2016-Aug-20 08:33N 34°37' E 135°07'5 4.9
2016-Aug-20 07:30N 34°41' E 135°11'2 2.6
2016-Aug-20 06:33N 34°38' E 135°11'2 2.5
2016-Aug-20 05:33N 34°41' E 135°11'2 1.8
2016-Aug-20 04:33N 34°39' E 135°11'2 1.8
2016-Aug-20 03:33N 34°38' E 135°10'3 3.2
2016-Aug-20 02:33N 34°41' E 135°11'0 0.0
2016-Aug-20 01:33N 34°41' E 135°11'0 0.0
2016-Aug-20 00:33N 34°41' E 135°11'0 0.0
2016-Aug-19 23:33N 34°41' E 135°11'0 0.0
2016-Aug-19 22:33N 34°41' E 135°11'0 0.0
2016-Aug-19 21:27N 34°41' E 135°11'0 0.0
2016-Aug-19 20:33N 34°41' E 135°11'0 0.0
2016-Aug-19 19:33N 34°41' E 135°11'0 0.0
2016-Aug-19 18:33N 34°41' E 135°11'0 0.0
2016-Aug-19 17:33N 34°41' E 135°11'0 0.0
2016-Aug-19 16:33N 34°41' E 135°11'0 0.0
2016-Aug-19 15:33N 34°41' E 135°11'0 0.0
2016-Aug-19 14:15N 34°41' E 135°11'0 0.0
2016-Aug-19 13:33N 34°41' E 135°11'0 0.0
2016-Aug-19 12:33N 34°41' E 135°11'3 3.0
2016-Aug-19 11:33N 34°38' E 135°10'0 0.5
2016-Aug-19 10:33N 34°38' E 135°10'3 2.3
2016-Aug-19 09:24N 34°41' E 135°11'5 5.9
2016-Aug-19 08:33N 34°37' E 135°07'5 5.0
2016-Aug-19 07:33N 34°41' E 135°11'2 2.3
2016-Aug-19 06:33N 34°39' E 135°11'2 2.3
2016-Aug-19 05:33N 34°41' E 135°11'2 2.0
2016-Aug-19 04:33N 34°39' E 135°11'1 1.4
2016-Aug-19 03:33N 34°38' E 135°10'3 2.9
2016-Aug-19 02:33N 34°41' E 135°11'0 0.0
2016-Aug-18 12:30N 34°41' E 135°11'4 3.8
2016-Aug-18 11:33N 34°37' E 135°09'0 0.4
2016-Aug-18 10:33N 34°38' E 135°10'3 2.8
2016-Aug-18 09:25N 34°41' E 135°11'5 6.0
2016-Aug-18 08:33N 34°37' E 135°07'5 5.2
2016-Aug-18 07:33N 34°41' E 135°11'3 2.8
2016-Aug-18 06:33N 34°38' E 135°10'3 2.8
2016-Aug-18 05:34N 34°41' E 135°11'2 1.7
2016-Aug-18 04:33N 34°39' E 135°11'1 1.3
2016-Aug-18 03:33N 34°38' E 135°10'3 2.6
2016-Aug-18 02:33N 34°41' E 135°11'0 0.0
2016-Aug-18 01:33N 34°41' E 135°11'0 0.0
2016-Aug-18 00:27N 34°41' E 135°11'0 0.0
2016-Aug-17 23:33N 34°41' E 135°11'0 0.0
2016-Aug-17 22:33N 34°41' E 135°11'0 0.0
2016-Aug-17 21:33N 34°41' E 135°11'0 0.0
2016-Aug-17 20:33N 34°41' E 135°11'0 0.0
2016-Aug-17 19:33N 34°41' E 135°11'0 0.0
2016-Aug-17 18:33N 34°41' E 135°11'0 0.0
2016-Aug-17 17:33N 34°41' E 135°11'0 0.0
2016-Aug-17 16:33N 34°41' E 135°11'0 0.0
2016-Aug-17 15:33N 34°41' E 135°11'0 0.0
2016-Aug-17 14:33N 34°41' E 135°11'0 0.0
2016-Aug-17 13:27N 34°41' E 135°11'0 0.0
2016-Aug-17 12:33N 34°41' E 135°11'3 3.1
2016-Aug-17 11:33N 34°38' E 135°10'0 0.4
2016-Aug-17 10:33N 34°38' E 135°10'3 2.7
2016-Aug-17 09:28N 34°41' E 135°11'5 5.5
2016-Aug-17 08:34N 34°38' E 135°07'5 4.6
2016-Aug-17 07:29N 34°41' E 135°11'3 2.8
2016-Aug-17 06:33N 34°38' E 135°11'3 2.6
2016-Aug-17 05:34N 34°41' E 135°11'2 1.6
2016-Aug-17 04:33N 34°39' E 135°11'2 2.1
2016-Aug-17 03:33N 34°38' E 135°09'3 3.1
2016-Aug-17 02:32N 34°41' E 135°11'0 0.0
2016-Aug-17 01:20N 34°41' E 135°11'0 0.0
2016-Aug-17 00:32N 34°41' E 135°11'0 0.0
2016-Aug-16 23:26N 34°41' E 135°11'0 0.0
2016-Aug-16 22:32N 34°41' E 135°11'0 0.0
2016-Aug-16 21:26N 34°41' E 135°11'0 0.0
2016-Aug-16 20:32N 34°41' E 135°11'0 0.0
2016-Aug-16 19:32N 34°41' E 135°11'0 0.0
2016-Aug-16 18:32N 34°41' E 135°11'0 0.0
2016-Aug-16 17:20N 34°41' E 135°11'0 0.0
2016-Aug-16 16:32N 34°41' E 135°11'0 0.0
2016-Aug-16 15:32N 34°41' E 135°11'0 0.0
2016-Aug-16 14:32N 34°41' E 135°11'0 0.0
2016-Aug-16 13:32N 34°41' E 135°11'0 0.0
2016-Aug-16 12:14N 34°41' E 135°11'3 4.6
2016-Aug-16 11:33N 34°38' E 135°10'1 0.8
2016-Aug-16 10:33N 34°38' E 135°09'3 3.2
2016-Aug-16 09:33N 34°41' E 135°11'  

Dump ship's entire track history